Pittsburgh, Pennsylvania
Traffic Map
Current Weather Conditions
Pittsburgh, Pennsylvania
Overcast
Overcast
40°
Feels Like: 33°
Wind Chill: 33° Ceiling: 9000
Heat Index: 40° Visibility: 10mi
Dew Point: 25° Wind: 10mph
Humidity: 55% Direction: 120° (ESE)
Pressure: 29.9in Gusts: 0mph
Raw Report DataKAGC 050053Z 12009KT 10SM FEW055 SCT075 OVC090 04/M04 A2990 RMK AO2 SLP140 T00441039
Traffic Incident Summary
Active as of:
Severity:
Category:
InformationThere was an issue retrieving the traffic information for this location. Please try a different location or try again shortly.
Advertisements
Track Severe Weather on mobile